Mayer, AZ

6:25 PM MST on February 09, 2016 (GMT -0700)
Spring Valley off Hwy 69 | | Change Station
CLOSE
Current Station
Personal Weather Station
Location: Mayer, AZ
Elevation: 3980 ft
Nearby Weather Stations

Elev 3980 ft 34.35 °N, 112.17 °W | Updated 33 seconds ago

Clear
Clear
57.9 °F
Feels Like 57.9 °F
N
4.0
Wind Variable Wind from NW
Gusts 4.0 mph

Today
High -- | Low -- °F
--% Chance of Precip.
Yesterday
High -- | Low -- °F
Precip. -- in
Pressure 30.20 in
Visibility 10.0 miles
Clouds Clear
Dew Point 22 °F
Humidity 25%
Rainfall 0.00 in
Snow Depth Not available.
7:19 AM 6:06 PM
Waxing Crescent, 3% visible
METAR KPRC 100053Z 30005KT 10SM CLR 18/M09 A3030 RMK AO2 SLP226 T01781089
Pressure 30.20 in
Visibility 10.0 miles
Clouds Clear
Dew Point 22 °F
Humidity 25%
Rainfall 0.00 in
Snow Depth Not available.
7:19 AM 6:06 PM
Waxing Crescent, 3% visible
METAR KPRC 100053Z 30005KT 10SM CLR 18/M09 A3030 RMK AO2 SLP226 T01781089

10-Day Weather Forecast

Almanac

Astronomy

Feb. 09, 2016 Rise Set
Actual Time
Civil Twilight
Nautical Twilight
Astronomical Twilight
Moon
Length of Visible Light
Length of Day
Tomorrow will be .
, % of the Moon is Illuminated

Today's Extremes

State Highs State Lows

Community

WunderPhotos

Upload Photos

1,891,758 photos uploaded!

WunderBlog® & News

Nearby

Air Quality

  Air Quality AQ Index Pollutant
Not available.

Snow Depth

Station Depth Elevation

Earthquake Activity

City Distance Mag. Time & Date
Minimum magnitude displayed is 2.5.

Coastal Water Temperatures

Place Temperature

Stations

Nearby Weather Stations

Station Location Temp. Windchill Dew Point Humidity Wind Precip. Elev Updated Type
                   

Watches & Warnings

There are currently no watches in effect.